createdAt,value
2019-04-24T00:00:09.329Z,50.70
2019-04-24T00:02:32.039Z,50.70
2019-04-24T00:05:14.592Z,51.10
2019-04-24T00:07:23.496Z,51.40
2019-04-24T00:10:04.233Z,51.40
2019-04-24T00:12:45.309Z,51.60
2019-04-24T00:15:37.302Z,51.80
2019-04-24T00:18:18.359Z,51.60
2019-04-24T00:20:35.373Z,51.50
2019-04-24T00:25:40.684Z,51.20
2019-04-24T00:28:04.530Z,51.20
2019-04-24T00:33:15.615Z,51.00
2019-04-24T00:35:59.288Z,51.20
2019-04-24T00:38:25.231Z,51.30
2019-04-24T00:41:04.982Z,50.90
2019-04-24T00:45:56.624Z,50.40
2019-04-24T00:48:38.207Z,50.20
2019-04-24T00:51:06.706Z,50.20
2019-04-24T00:56:08.052Z,50.80
2019-04-24T00:58:32.065Z,50.40
2019-04-24T01:01:25.738Z,50.20
2019-04-24T01:04:01.802Z,50.40
2019-04-24T01:06:34.954Z,50.80
2019-04-24T01:09:21.213Z,50.50
2019-04-24T01:11:31.509Z,50.00
2019-04-24T01:16:56.126Z,49.70
2019-04-24T01:19:10.468Z,49.70
2019-04-24T01:21:49.791Z,50.00
2019-04-24T01:29:16.393Z,49.50
2019-04-24T01:32:01.282Z,49.60
2019-04-24T01:39:58.833Z,48.80
2019-04-24T01:42:34.350Z,49.00
2019-04-24T01:50:09.863Z,49.00
2019-04-24T01:52:54.453Z,49.10
2019-04-24T01:55:08.798Z,48.40
2019-04-24T01:57:43.216Z,48.70
2019-04-24T02:00:24.171Z,48.20
2019-04-24T02:02:52.200Z,48.00
2019-04-24T02:08:11.542Z,48.10
2019-04-24T02:11:01.250Z,48.30
2019-04-24T02:13:28.241Z,48.00
2019-04-24T02:18:32.948Z,47.80
2019-04-24T02:20:54.375Z,47.80
2019-04-24T02:28:40.724Z,47.00
2019-04-24T02:36:38.269Z,46.90
2019-04-24T02:39:38.769Z,46.30
2019-04-24T02:57:10.134Z,46.30
2019-04-24T03:02:09.810Z,46.10
2019-04-24T03:04:37.256Z,46.00
2019-04-24T03:15:29.212Z,45.40
2019-04-24T03:18:00.105Z,45.20
2019-04-24T03:20:23.156Z,45.30
2019-04-24T03:25:39.857Z,45.00
2019-04-24T03:54:02.539Z,44.50
2019-04-24T03:56:28.649Z,44.00
2019-04-24T04:07:31.086Z,43.40
2019-04-24T04:12:52.588Z,43.00
2019-04-24T04:15:02.406Z,43.30
2019-04-24T04:17:49.448Z,43.30
2019-04-24T04:20:16.919Z,43.60
2019-04-24T04:25:27.022Z,42.60
2019-04-24T04:31:18.918Z,43.00
2019-04-24T04:36:06.024Z,42.40
2019-04-24T04:41:22.926Z,42.30
2019-04-24T04:43:56.477Z,42.30
2019-04-24T04:49:07.849Z,42.00
2019-04-24T04:54:42.686Z,41.40
2019-04-24T04:59:21.320Z,41.80
2019-04-24T05:22:20.529Z,40.00
2019-04-24T05:24:53.852Z,39.70
2019-04-24T05:27:24.799Z,39.50
2019-04-24T05:29:55.090Z,38.70
2019-04-24T05:33:13.990Z,37.80
2019-04-24T05:35:40.354Z,37.00
2019-04-24T05:38:04.643Z,37.00
2019-04-24T05:40:48.211Z,36.70
2019-04-24T05:48:21.425Z,34.50
2019-04-24T05:51:06.884Z,34.10
2019-04-24T05:58:58.086Z,32.50
2019-04-24T06:01:49.159Z,31.80
2019-04-24T06:04:27.686Z,30.10
2019-04-24T06:07:00.500Z,31.10
2019-04-24T06:12:32.580Z,30.50
2019-04-24T06:17:47.865Z,29.10
2019-04-24T06:22:52.230Z,29.10
2019-04-24T06:25:43.059Z,28.20
2019-04-24T06:30:44.920Z,28.70
2019-04-24T06:35:54.447Z,27.50
2019-04-24T06:41:24.260Z,27.60
2019-04-24T06:43:53.802Z,26.30
2019-04-24T06:46:33.092Z,24.30
2019-04-24T06:51:24.930Z,24.40
2019-04-24T06:57:16.008Z,22.60
2019-04-24T06:59:16.621Z,19.70
2019-04-24T07:01:49.025Z,18.10
2019-04-24T07:05:08.721Z,16.60
2019-04-24T07:07:33.814Z,16.50
2019-04-24T07:13:25.625Z,13.50
2019-04-24T07:18:27.495Z,12.50
2019-04-24T07:23:41.168Z,13.10
2019-04-24T07:28:42.396Z,11.30
2019-04-24T07:31:41.195Z,11.30
2019-04-24T07:36:52.833Z,11.40
2019-04-24T07:44:29.161Z,10.10
2019-04-24T07:47:09.219Z,8.50
2019-04-24T07:49:52.851Z,8.00
2019-04-24T07:52:13.553Z,7.40
2019-04-24T07:57:27.105Z,7.60
2019-04-24T08:05:18.101Z,10.80
2019-04-24T08:10:44.031Z,9.80
2019-04-24T08:15:45.227Z,9.70
2019-04-24T08:18:15.951Z,10.20
2019-04-24T08:23:29.094Z,6.10
2019-04-24T08:25:52.337Z,5.50
2019-04-24T08:28:22.948Z,4.80
2019-04-24T08:31:21.111Z,5.80
2019-04-24T08:36:29.629Z,6.70
2019-04-24T08:39:23.530Z,4.80
2019-04-24T08:41:58.464Z,3.10
2019-04-24T08:44:05.234Z,3.20
2019-04-24T08:47:04.107Z,4.00
2019-04-24T08:49:42.263Z,2.90
2019-04-24T08:52:13.514Z,1.60
2019-04-24T08:54:30.210Z,1.00
2019-04-24T09:02:54.773Z,2.30
2019-04-24T09:05:07.947Z,2.40
2019-04-24T09:08:05.785Z,1.50
2019-04-24T09:13:17.354Z,1.70
2019-04-24T09:16:00.046Z,2.40
2019-04-24T09:18:13.654Z,2.40
2019-04-24T09:20:49.199Z,1.40
2019-04-24T09:26:42.530Z,2.20
2019-04-24T09:31:34.286Z,1.80
2019-04-24T09:33:54.932Z,1.30
2019-04-24T09:39:38.724Z,1.00
2019-04-24T09:42:17.098Z,1.00
2019-04-24T09:44:31.161Z,1.00
2019-04-24T09:46:55.644Z,1.00
2019-04-24T09:49:26.257Z,1.00
2019-04-24T09:54:54.954Z,2.10
2019-04-24T09:59:56.999Z,1.40
2019-04-24T10:07:57.345Z,1.00
2019-04-24T10:10:24.641Z,1.00
2019-04-24T10:12:54.483Z,1.00
2019-04-24T10:15:34.645Z,1.40
2019-04-24T10:18:04.193Z,1.30
2019-04-24T10:20:42.418Z,1.00
2019-04-24T10:23:24.613Z,1.00
2019-04-24T10:25:52.177Z,1.50
2019-04-24T10:31:44.886Z,1.20
2019-04-24T10:34:05.683Z,1.70
2019-04-24T10:36:59.319Z,1.00
2019-04-24T10:39:55.594Z,1.00
2019-04-24T10:42:05.064Z,1.00
2019-04-24T10:45:07.135Z,1.00
2019-04-24T10:50:05.340Z,1.00
2019-04-24T10:55:41.649Z,1.00
2019-04-24T10:57:59.733Z,1.00
2019-04-24T11:00:34.286Z,1.00
2019-04-24T11:03:05.239Z,1.00
2019-04-24T11:08:37.727Z,1.00
2019-04-24T11:11:09.835Z,1.00
2019-04-24T11:14:11.689Z,1.00
2019-04-24T11:17:14.295Z,1.00
2019-04-24T11:19:43.328Z,1.00
2019-04-24T11:22:12.705Z,1.60
2019-04-24T11:24:51.584Z,3.00
2019-04-24T11:30:05.009Z,3.20
2019-04-24T11:32:45.974Z,4.40
2019-04-24T11:43:09.762Z,5.10
2019-04-24T11:46:48.621Z,4.70
2019-04-24T11:49:11.038Z,6.50
2019-04-24T11:51:53.827Z,5.30
2019-04-24T11:54:15.339Z,5.10
2019-04-24T11:57:27.823Z,5.60
2019-04-24T11:59:32.234Z,6.30
2019-04-24T12:05:21.555Z,5.90
2019-04-24T12:10:20.879Z,6.20
2019-04-24T12:13:10.024Z,5.90
2019-04-24T12:18:42.351Z,6.40
2019-04-24T12:23:48.397Z,6.20
2019-04-24T12:33:47.888Z,5.30
2019-04-24T12:36:23.100Z,6.10
2019-04-24T12:41:36.105Z,5.60
2019-04-24T12:49:20.704Z,4.80
2019-04-24T12:51:47.829Z,5.00
2019-04-24T12:59:48.473Z,4.80
2019-04-24T13:02:44.310Z,4.70
2019-04-24T13:05:23.208Z,4.80
2019-04-24T13:10:23.669Z,5.00
2019-04-24T13:13:24.598Z,4.80
2019-04-24T13:15:54.051Z,5.30
2019-04-24T13:20:30.080Z,4.80
2019-04-24T13:23:04.961Z,4.20
2019-04-24T13:26:07.555Z,4.60
2019-04-24T13:29:02.939Z,4.70
2019-04-24T13:31:24.192Z,4.60
2019-04-24T13:33:54.669Z,3.80
2019-04-24T13:36:46.400Z,3.90
2019-04-24T13:41:30.499Z,4.00
2019-04-24T13:46:18.695Z,4.00
2019-04-24T13:51:25.780Z,3.70
2019-04-24T13:56:26.475Z,2.70
2019-04-24T13:58:58.673Z,2.80
2019-04-24T14:19:32.355Z,3.30
2019-04-24T14:22:04.668Z,3.10
2019-04-24T14:27:06.632Z,4.00
2019-04-24T14:29:35.114Z,4.50
2019-04-24T14:37:09.914Z,4.90
2019-04-24T14:39:47.360Z,4.60
2019-04-24T14:42:14.962Z,4.50
2019-04-24T14:45:00.812Z,4.30
2019-04-24T14:47:27.671Z,4.50
2019-04-24T14:50:08.762Z,5.40
2019-04-24T14:52:34.911Z,5.50
2019-04-24T14:55:14.481Z,5.30
2019-04-24T14:57:31.518Z,5.00
2019-04-24T15:02:40.987Z,5.00
2019-04-24T15:05:13.137Z,4.60
2019-04-24T15:07:38.599Z,5.00
2019-04-24T15:10:08.287Z,4.90
2019-04-24T15:12:54.795Z,4.90
2019-04-24T15:15:13.545Z,5.10
2019-04-24T15:18:01.259Z,5.30
2019-04-24T15:20:22.086Z,5.40
2019-04-24T15:25:36.582Z,5.30
2019-04-24T15:28:07.533Z,5.40
2019-04-24T15:30:24.019Z,5.20
2019-04-24T15:33:00.008Z,5.30
2019-04-24T15:35:29.210Z,5.30
2019-04-24T15:37:57.578Z,5.30
2019-04-24T15:40:41.818Z,5.60
2019-04-24T15:43:18.045Z,6.00
2019-04-24T15:45:24.834Z,6.00
2019-04-24T15:50:30.764Z,6.00
2019-04-24T15:52:29.699Z,6.30
2019-04-24T15:54:58.534Z,6.70
2019-04-24T15:57:27.644Z,6.90
2019-04-24T16:00:19.561Z,6.90
2019-04-24T16:03:06.052Z,7.10
2019-04-24T16:04:57.891Z,6.90
2019-04-24T16:07:32.632Z,7.00
2019-04-24T16:10:08.135Z,6.80
2019-04-24T16:12:37.181Z,6.90
2019-04-24T16:15:41.958Z,7.10
2019-04-24T16:18:12.470Z,7.20
2019-04-24T16:20:40.882Z,7.20
2019-04-24T16:23:12.739Z,7.60
2019-04-24T16:25:36.382Z,7.70
2019-04-24T16:28:18.746Z,8.00
2019-04-24T16:30:38.682Z,8.20
2019-04-24T16:33:19.575Z,8.40
2019-04-24T16:35:53.544Z,8.70
2019-04-24T16:38:18.316Z,8.70
2019-04-24T16:40:51.000Z,8.80
2019-04-24T16:43:23.263Z,9.10
2019-04-24T16:46:36.961Z,9.20
2019-04-24T16:55:59.597Z,10.20
2019-04-24T16:58:39.635Z,10.50
2019-04-24T17:04:14.924Z,10.90
2019-04-24T17:06:22.089Z,11.20
2019-04-24T17:08:53.768Z,11.40
2019-04-24T17:11:20.659Z,11.80
2019-04-24T17:13:55.502Z,11.90
2019-04-24T17:19:11.897Z,12.50
2019-04-24T17:26:28.893Z,13.30
2019-04-24T17:29:14.776Z,13.10
2019-04-24T17:34:09.713Z,13.30
2019-04-24T17:36:22.311Z,13.50
2019-04-24T17:39:02.094Z,13.80
2019-04-24T17:41:39.194Z,14.20
2019-04-24T17:44:44.894Z,14.30
2019-04-24T17:57:10.362Z,15.70
2019-04-24T17:59:06.103Z,15.90
2019-04-24T18:01:35.315Z,16.00
2019-04-24T18:04:04.417Z,16.00
2019-04-24T18:06:33.512Z,16.20
2019-04-24T18:09:03.237Z,16.60
2019-04-24T18:11:32.513Z,16.70
2019-04-24T18:14:02.019Z,16.90
2019-04-24T18:16:31.601Z,17.60
2019-04-24T18:19:02.724Z,17.30
2019-04-24T18:21:32.338Z,17.60
2019-04-24T18:24:01.327Z,18.10
2019-04-24T18:26:47.698Z,18.20
2019-04-24T18:29:16.458Z,18.60
2019-04-24T18:31:45.270Z,18.90
2019-04-24T18:34:15.087Z,19.00
2019-04-24T18:36:44.363Z,19.10
2019-04-24T18:39:13.224Z,19.50
2019-04-24T18:41:42.222Z,19.80
2019-04-24T18:44:12.292Z,19.80
2019-04-24T18:46:41.794Z,20.20
2019-04-24T18:49:12.540Z,20.60
2019-04-24T18:51:41.943Z,20.90
2019-04-24T18:54:12.641Z,21.10
2019-04-24T18:56:41.337Z,21.30
2019-04-24T18:59:10.407Z,21.60
2019-04-24T19:01:39.185Z,21.40
2019-04-24T19:04:08.384Z,21.80
2019-04-24T19:06:37.312Z,22.20
2019-04-24T19:09:07.478Z,22.50
2019-04-24T19:11:36.519Z,22.80
2019-04-24T19:14:05.330Z,22.70
2019-04-24T19:16:34.100Z,23.00
2019-04-24T19:19:03.196Z,23.40
2019-04-24T19:21:32.030Z,23.70
2019-04-24T19:24:00.833Z,24.40
2019-04-24T19:26:31.451Z,24.50
2019-04-24T19:29:00.319Z,24.50
2019-04-24T19:31:29.165Z,24.40
2019-04-24T19:33:58.231Z,24.50
2019-04-24T19:36:26.971Z,24.90
2019-04-24T19:38:55.735Z,24.80
2019-04-24T19:41:24.451Z,25.00
2019-04-24T19:43:53.216Z,25.30
2019-04-24T19:46:22.390Z,25.40
2019-04-24T19:48:52.163Z,25.10
2019-04-24T19:51:21.119Z,25.20
2019-04-24T19:53:51.258Z,25.40
2019-04-24T19:56:20.607Z,25.00
2019-04-24T19:58:49.386Z,25.00
2019-04-24T20:01:18.275Z,25.20
2019-04-24T20:03:47.030Z,24.90
2019-04-24T20:06:16.296Z,24.80
2019-04-24T20:08:45.170Z,24.80
2019-04-24T20:11:20.499Z,24.80
2019-04-24T20:13:49.280Z,25.30
2019-04-24T20:16:18.707Z,25.10
2019-04-24T20:18:47.751Z,25.10
2019-04-24T20:21:17.152Z,25.00
2019-04-24T20:23:45.972Z,25.00
2019-04-24T20:26:15.386Z,25.10
2019-04-24T20:28:44.203Z,25.20
2019-04-24T20:31:14.214Z,25.00
2019-04-24T20:33:43.069Z,25.00
2019-04-24T20:36:11.922Z,25.40
2019-04-24T20:38:42.055Z,25.50
2019-04-24T20:41:12.020Z,25.40
2019-04-24T20:43:41.697Z,25.30
2019-04-24T20:46:11.417Z,25.40
2019-04-24T20:48:40.300Z,25.10
2019-04-24T20:51:09.123Z,24.70
2019-04-24T20:53:40.278Z,24.70
2019-04-24T20:56:08.672Z,24.90
2019-04-24T20:58:37.470Z,25.10
2019-04-24T21:01:08.049Z,24.60
2019-04-24T21:03:36.819Z,24.40
2019-04-24T21:06:11.627Z,24.50
2019-04-24T21:08:47.551Z,24.40
2019-04-24T21:11:16.380Z,24.60
2019-04-24T21:13:45.208Z,24.30
2019-04-24T21:16:14.083Z,24.40
2019-04-24T21:18:42.816Z,24.70
2019-04-24T21:21:11.767Z,24.70
2019-04-24T21:23:53.219Z,24.70
2019-04-24T21:26:11.060Z,24.50
2019-04-24T21:28:39.834Z,24.70
2019-04-24T21:31:08.847Z,24.80
2019-04-24T21:33:37.610Z,24.60
2019-04-24T21:36:06.318Z,24.80
2019-04-24T21:38:35.285Z,24.70
2019-04-24T21:41:04.035Z,24.70
2019-04-24T21:43:35.566Z,24.80
2019-04-24T21:46:03.384Z,24.70
2019-04-24T21:48:32.868Z,24.30
2019-04-24T21:51:01.620Z,24.30
2019-04-24T21:53:32.426Z,24.50
2019-04-24T21:56:00.844Z,24.70
2019-04-24T21:58:32.008Z,24.90
2019-04-24T22:01:37.655Z,24.90
2019-04-24T22:04:32.047Z,25.00
2019-04-24T22:07:06.287Z,24.80
2019-04-24T22:09:35.687Z,24.50
2019-04-24T22:12:04.776Z,24.40
2019-04-24T22:14:33.895Z,24.50
2019-04-24T22:17:02.914Z,24.40
2019-04-24T22:19:31.803Z,24.80
2019-04-24T22:22:06.433Z,25.00
2019-04-24T22:25:09.603Z,24.80
2019-04-24T22:27:40.391Z,25.00
2019-04-24T22:30:18.175Z,25.30
2019-04-24T22:32:46.955Z,24.50
2019-04-24T22:35:23.436Z,24.40
2019-04-24T22:37:52.370Z,24.80
2019-04-24T22:40:27.819Z,24.90
2019-04-24T22:42:56.880Z,24.50
2019-04-24T22:45:25.767Z,24.40
2019-04-24T22:47:54.527Z,24.30
2019-04-24T22:50:23.364Z,24.30
2019-04-24T22:52:52.106Z,24.10
2019-04-24T22:55:21.991Z,23.90
2019-04-24T22:57:50.835Z,24.30
2019-04-24T23:00:25.033Z,24.60
2019-04-24T23:02:54.044Z,24.70
2019-04-24T23:05:23.207Z,24.60
2019-04-24T23:07:52.042Z,24.70
2019-04-24T23:10:33.492Z,24.90
2019-04-24T23:12:52.192Z,24.80
2019-04-24T23:15:21.537Z,24.70
2019-04-24T23:17:50.395Z,24.70
2019-04-24T23:20:21.682Z,25.00
2019-04-24T23:23:07.986Z,24.60
2019-04-24T23:25:42.214Z,24.50
2019-04-24T23:28:16.285Z,24.40
2019-04-24T23:31:11.236Z,24.90
2019-04-24T23:33:44.785Z,24.90
2019-04-24T23:36:14.054Z,25.40
2019-04-24T23:38:42.973Z,25.40
2019-04-24T23:41:13.048Z,25.20
2019-04-24T23:43:42.577Z,25.80
2019-04-24T23:46:11.846Z,26.50
2019-04-24T23:48:41.564Z,27.30
2019-04-24T23:51:11.190Z,27.20
2019-04-24T23:54:00.454Z,27.40
2019-04-24T23:56:29.388Z,27.60
2019-04-24T23:58:58.157Z,27.90
